Home > Products > Valid Products > TAF

000
FTUS43 KIWX 311700 RRA
TAFFWA
TAF
KFWA 311742Z 3118/0118 30013G21KT P6SM VCSH SCT015 OVC025
      TEMPO 3118/3121 OVC015
     FM312100 34020G33KT 3SM -RASN OVC015
     FM010000 36018G28KT 3SM -SHSN OVC015
     FM010400 35016G25KT P6SM BKN025
     FM011000 36012G18KT P6SM FEW025=



000
FTUS43 KIWX 311600 AAB
TAFFWA
TAF AMD
KFWA 311623Z 3116/0112 30011G17KT P6SM -RA BKN015
     FM311800 31015G27KT 5SM -RA BR OVC020
     FM312000 34020G33KT 5SM -RASN OVC015
     FM010400 35016G25KT P6SM BKN025=



000
FTUS43 KIWX 311200 AAA
TAFFWA
TAF AMD
KFWA 311257Z 3113/0112 29010G18KT 5SM -RA BR SCT009 BKN015
     FM311400 31014G24KT 5SM -RA BR OVC020
     FM312000 34020G33KT 5SM -RASN OVC015
     FM010400 35016G25KT P6SM BKN025=



000
FTUS43 KIWX 311100
TAFFWA
TAF
KFWA 311120Z 3112/0112 25007KT 6SM -RA BR OVC035
     FM311400 31014G24KT 5SM -RA BR OVC020
     FM312000 34020G33KT 5SM -RASN OVC015
     FM010400 35016G25KT P6SM BKN025=



000
FTUS43 KIWX 310500
TAFFWA
TAF
KFWA 310531Z 3106/0106 22005KT P6SM BKN040 OVC080
     FM311100 27012G18KT 6SM -SHRA BR OVC030
     FM311400 31014G24KT 6SM BR VCSH OVC020
     FM311700 33016G28KT P6SM -SHRA OVC020
     FM312200 34020G33KT P6SM -SHRASN OVC020=



000
FTUS43 KIWX 302300 RRA
TAFFWA
TAF
KFWA 302339Z 3100/3124 24005KT P6SM BKN040 OVC080
     FM311100 27012G18KT 6SM -SHRA BR OVC030
     FM311400 31014G24KT 6SM BR VCSH OVC020
     FM311700 33016G28KT P6SM -SHRA OVC020=



000
FTUS43 KIWX 301700
TAFFWA
TAF
KFWA 301740Z 3018/3118 24005KT P6SM BKN050
     FM311100 27010KT P6SM BKN030
     FM311300 30012G20KT 6SM -SHRA BR OVC020=



000
FTUS43 KIWX 301700
TAFFWA
TAF
KFWA 301740Z 3018/3118 24005KT P6SM BKN050
     FM311100 27010KT P6SM BKN030
     FM311300 30012G20KT 6SM -SHRA BR OVC020=



000
FTUS43 KIWX 301100
TAFFWA
TAF
KFWA 301120Z 3012/3112 24005KT P6SM OVC035=



000
FTUS43 KIWX 300500
TAFFWA
TAF
KFWA 300521Z 3006/3106 28004KT P6SM OVC045
     FM301400 23005KT P6SM SCT040 BKN150=



000
FTUS43 KIWX 292300
TAFFWA
TAF
KFWA 292336Z 3000/3024 28004KT P6SM OVC045
     FM301400 23005KT P6SM SCT040 BKN150=



000
FTUS43 KIWX 291700
TAFFWA
TAF
KFWA 291720Z 2918/3018 28012G18KT P6SM OVC040
     FM300000 29006KT P6SM BKN040
     FM300600 VRB02KT P6SM SKC
     FM301600 22005KT P6SM BKN150=



000
FTUS43 KIWX 291400 AAA
TAFFWA
TAF AMD
KFWA 291403Z 2914/3012 27012G18KT P6SM BKN035
     FM292300 30007KT P6SM BKN040
     FM300500 28003KT P6SM SCT040=



000
FTUS43 KIWX 291100
TAFFWA
TAF
KFWA 291120Z 2912/3012 24010KT P6SM SCT040
     FM291500 27012G18KT P6SM BKN035
     FM292300 30007KT P6SM BKN040
     FM300500 28003KT P6SM SCT040=



000
FTUS43 KIWX 290500
TAFFWA
TAF
KFWA 290520Z 2906/3006 24006KT P6SM BKN200
     FM291500 27012G18KT P6SM BKN035
     FM300000 30006KT P6SM BKN035=



000
FTUS43 KIWX 282300
TAFFWA
TAF
KFWA 282337Z 2900/2924 25010KT P6SM SCT060 BKN150
     FM291000 26008KT P6SM SCT030 BKN050
      TEMPO 2910/2914 BKN030
     FM291400 27012G18KT P6SM BKN030=



    US Dept of Commerce
    National Oceanic and Atmospheric Administration
    National Weather Service
    1325 East West Highway
    Silver Spring, MD 20910
    Page Author: NWS Internet Services Team
Disclaimer
Information Quality
Credits
Glossary
Privacy Policy
Freedom of Information Act (FOIA)
About Us
Career Opportunities